sensor_id;sensor_type;location;lat;lon;timestamp;P1;durP1;ratioP1;P2;durP2;ratioP2
73487;SDS011;61721;42.206;25.320;2023-12-14T00:01:19;29.67;;;13.15;;
73487;SDS011;61721;42.206;25.320;2023-12-14T00:03:46;25.73;;;11.95;;
73487;SDS011;61721;42.206;25.320;2023-12-14T00:06:14;30.55;;;15.23;;
73487;SDS011;61721;42.206;25.320;2023-12-14T00:08:41;34.38;;;14.73;;
73487;SDS011;61721;42.206;25.320;2023-12-14T00:11:09;28.52;;;12.48;;
73487;SDS011;61721;42.206;25.320;2023-12-14T00:13:38;18.92;;;10.30;;
73487;SDS011;61721;42.206;25.320;2023-12-14T00:16:06;18.60;;;10.18;;
73487;SDS011;61721;42.206;25.320;2023-12-14T00:18:43;20.02;;;11.13;;
73487;SDS011;61721;42.206;25.320;2023-12-14T00:21:10;18.60;;;10.02;;
73487;SDS011;61721;42.206;25.320;2023-12-14T00:23:37;19.85;;;9.85;;
73487;SDS011;61721;42.206;25.320;2023-12-14T00:26:05;19.83;;;10.02;;
73487;SDS011;61721;42.206;25.320;2023-12-14T00:28:32;19.35;;;10.73;;
73487;SDS011;61721;42.206;25.320;2023-12-14T00:31:00;20.23;;;10.10;;
73487;SDS011;61721;42.206;25.320;2023-12-14T00:33:27;19.13;;;10.55;;
73487;SDS011;61721;42.206;25.320;2023-12-14T00:35:56;19.25;;;10.30;;
73487;SDS011;61721;42.206;25.320;2023-12-14T00:38:23;18.63;;;10.32;;
73487;SDS011;61721;42.206;25.320;2023-12-14T00:40:51;19.05;;;9.73;;
73487;SDS011;61721;42.206;25.320;2023-12-14T00:43:18;18.05;;;9.85;;
73487;SDS011;61721;42.206;25.320;2023-12-14T00:45:46;19.30;;;9.98;;
73487;SDS011;61721;42.206;25.320;2023-12-14T00:48:13;20.42;;;10.32;;
73487;SDS011;61721;42.206;25.320;2023-12-14T00:50:41;22.42;;;10.40;;
73487;SDS011;61721;42.206;25.320;2023-12-14T00:53:10;17.50;;;10.52;;
73487;SDS011;61721;42.206;25.320;2023-12-14T00:55:37;19.15;;;10.25;;
73487;SDS011;61721;42.206;25.320;2023-12-14T00:58:05;20.55;;;9.75;;
73487;SDS011;61721;42.206;25.320;2023-12-14T01:00:32;20.35;;;9.90;;
73487;SDS011;61721;42.206;25.320;2023-12-14T01:03:00;18.70;;;9.80;;
73487;SDS011;61721;42.206;25.320;2023-12-14T01:05:28;21.15;;;10.25;;
73487;SDS011;61721;42.206;25.320;2023-12-14T01:07:55;19.80;;;9.88;;
73487;SDS011;61721;42.206;25.320;2023-12-14T01:10:24;18.35;;;10.00;;
73487;SDS011;61721;42.206;25.320;2023-12-14T01:12:52;20.27;;;10.15;;
73487;SDS011;61721;42.206;25.320;2023-12-14T01:15:19;19.73;;;9.38;;
73487;SDS011;61721;42.206;25.320;2023-12-14T01:17:46;18.27;;;10.00;;
73487;SDS011;61721;42.206;25.320;2023-12-14T01:20:14;17.35;;;9.52;;
73487;SDS011;61721;42.206;25.320;2023-12-14T01:22:41;18.15;;;9.23;;
73487;SDS011;61721;42.206;25.320;2023-12-14T01:25:08;16.73;;;9.15;;
73487;SDS011;61721;42.206;25.320;2023-12-14T01:27:37;19.27;;;9.93;;
73487;SDS011;61721;42.206;25.320;2023-12-14T01:30:05;21.88;;;10.52;;
73487;SDS011;61721;42.206;25.320;2023-12-14T01:32:33;18.30;;;10.43;;
73487;SDS011;61721;42.206;25.320;2023-12-14T01:35:01;18.45;;;9.35;;
73487;SDS011;61721;42.206;25.320;2023-12-14T01:37:28;18.38;;;9.10;;
73487;SDS011;61721;42.206;25.320;2023-12-14T01:39:56;22.17;;;10.82;;
73487;SDS011;61721;42.206;25.320;2023-12-14T01:42:23;18.60;;;10.02;;
73487;SDS011;61721;42.206;25.320;2023-12-14T01:44:53;19.65;;;9.88;;
73487;SDS011;61721;42.206;25.320;2023-12-14T01:47:20;18.75;;;9.93;;
73487;SDS011;61721;42.206;25.320;2023-12-14T01:49:48;18.85;;;9.48;;
73487;SDS011;61721;42.206;25.320;2023-12-14T01:52:15;17.90;;;9.60;;
73487;SDS011;61721;42.206;25.320;2023-12-14T01:54:43;18.67;;;10.10;;
73487;SDS011;61721;42.206;25.320;2023-12-14T01:57:10;18.30;;;10.30;;
73487;SDS011;61721;42.206;25.320;2023-12-14T01:59:38;18.67;;;10.25;;
73487;SDS011;61721;42.206;25.320;2023-12-14T02:02:07;22.00;;;9.93;;
73487;SDS011;61721;42.206;25.320;2023-12-14T02:04:34;18.35;;;10.38;;
73487;SDS011;61721;42.206;25.320;2023-12-14T02:07:03;17.60;;;9.63;;
73487;SDS011;61721;42.206;25.320;2023-12-14T02:09:30;20.23;;;10.98;;
73487;SDS011;61721;42.206;25.320;2023-12-14T02:11:58;18.98;;;9.57;;
73487;SDS011;61721;42.206;25.320;2023-12-14T02:14:25;19.65;;;11.05;;
73487;SDS011;61721;42.206;25.320;2023-12-14T02:16:53;17.05;;;10.52;;
73487;SDS011;61721;42.206;25.320;2023-12-14T02:19:22;21.48;;;11.32;;
73487;SDS011;61721;42.206;25.320;2023-12-14T02:21:49;18.25;;;10.88;;
73487;SDS011;61721;42.206;25.320;2023-12-14T02:24:18;18.38;;;10.88;;
73487;SDS011;61721;42.206;25.320;2023-12-14T02:26:46;26.90;;;12.75;;
73487;SDS011;61721;42.206;25.320;2023-12-14T02:29:20;21.15;;;11.93;;
73487;SDS011;61721;42.206;25.320;2023-12-14T02:31:48;25.00;;;12.88;;
73487;SDS011;61721;42.206;25.320;2023-12-14T02:34:15;22.90;;;12.88;;
73487;SDS011;61721;42.206;25.320;2023-12-14T02:36:44;21.65;;;11.10;;
73487;SDS011;61721;42.206;25.320;2023-12-14T02:39:11;18.33;;;11.15;;
73487;SDS011;61721;42.206;25.320;2023-12-14T02:41:40;20.98;;;11.00;;
73487;SDS011;61721;42.206;25.320;2023-12-14T02:44:08;18.17;;;10.20;;
73487;SDS011;61721;42.206;25.320;2023-12-14T02:46:35;20.48;;;10.73;;
73487;SDS011;61721;42.206;25.320;2023-12-14T02:49:03;17.58;;;9.55;;
73487;SDS011;61721;42.206;25.320;2023-12-14T02:51:31;19.35;;;10.38;;
73487;SDS011;61721;42.206;25.320;2023-12-14T02:53:58;17.52;;;9.70;;
73487;SDS011;61721;42.206;25.320;2023-12-14T02:56:25;17.25;;;9.63;;
73487;SDS011;61721;42.206;25.320;2023-12-14T02:58:54;19.60;;;10.57;;
73487;SDS011;61721;42.206;25.320;2023-12-14T03:01:22;17.70;;;10.32;;
73487;SDS011;61721;42.206;25.320;2023-12-14T03:03:49;24.77;;;11.30;;
73487;SDS011;61721;42.206;25.320;2023-12-14T03:06:16;17.08;;;10.25;;
73487;SDS011;61721;42.206;25.320;2023-12-14T03:08:44;21.00;;;10.73;;
73487;SDS011;61721;42.206;25.320;2023-12-14T03:11:20;21.17;;;9.80;;
73487;SDS011;61721;42.206;25.320;2023-12-14T03:13:48;18.77;;;9.43;;
73487;SDS011;61721;42.206;25.320;2023-12-14T03:16:17;19.90;;;10.20;;
73487;SDS011;61721;42.206;25.320;2023-12-14T03:18:45;20.00;;;10.15;;
73487;SDS011;61721;42.206;25.320;2023-12-14T03:21:14;17.55;;;8.73;;
73487;SDS011;61721;42.206;25.320;2023-12-14T03:23:42;18.27;;;10.25;;
73487;SDS011;61721;42.206;25.320;2023-12-14T03:26:09;17.50;;;10.00;;
73487;SDS011;61721;42.206;25.320;2023-12-14T03:28:37;19.42;;;10.20;;
73487;SDS011;61721;42.206;25.320;2023-12-14T03:31:05;21.65;;;10.50;;
73487;SDS011;61721;42.206;25.320;2023-12-14T03:33:34;21.20;;;9.88;;
73487;SDS011;61721;42.206;25.320;2023-12-14T03:36:02;27.27;;;14.32;;
73487;SDS011;61721;42.206;25.320;2023-12-14T03:38:29;31.27;;;17.60;;
73487;SDS011;61721;42.206;25.320;2023-12-14T03:40:57;27.40;;;14.88;;
73487;SDS011;61721;42.206;25.320;2023-12-14T03:43:24;28.40;;;13.73;;
73487;SDS011;61721;42.206;25.320;2023-12-14T03:45:52;25.30;;;13.02;;
73487;SDS011;61721;42.206;25.320;2023-12-14T03:48:19;23.27;;;11.75;;
73487;SDS011;61721;42.206;25.320;2023-12-14T03:50:48;31.70;;;13.95;;
73487;SDS011;61721;42.206;25.320;2023-12-14T03:53:15;33.00;;;16.58;;
73487;SDS011;61721;42.206;25.320;2023-12-14T03:55:43;22.77;;;12.98;;
73487;SDS011;61721;42.206;25.320;2023-12-14T03:58:11;27.05;;;14.20;;
73487;SDS011;61721;42.206;25.320;2023-12-14T04:00:39;25.73;;;13.25;;
73487;SDS011;61721;42.206;25.320;2023-12-14T04:03:06;23.00;;;13.60;;
73487;SDS011;61721;42.206;25.320;2023-12-14T04:05:33;20.63;;;11.80;;
73487;SDS011;61721;42.206;25.320;2023-12-14T04:08:05;26.30;;;13.80;;
73487;SDS011;61721;42.206;25.320;2023-12-14T04:10:33;27.75;;;13.40;;
73487;SDS011;61721;42.206;25.320;2023-12-14T04:13:00;26.02;;;13.50;;
73487;SDS011;61721;42.206;25.320;2023-12-14T04:15:27;27.67;;;14.00;;
73487;SDS011;61721;42.206;25.320;2023-12-14T04:17:55;28.15;;;13.30;;
73487;SDS011;61721;42.206;25.320;2023-12-14T04:20:23;24.30;;;13.73;;
73487;SDS011;61721;42.206;25.320;2023-12-14T04:22:50;30.48;;;13.30;;
73487;SDS011;61721;42.206;25.320;2023-12-14T04:25:19;24.50;;;12.15;;
73487;SDS011;61721;42.206;25.320;2023-12-14T04:27:47;20.33;;;10.75;;
73487;SDS011;61721;42.206;25.320;2023-12-14T04:30:14;20.00;;;10.55;;
73487;SDS011;61721;42.206;25.320;2023-12-14T04:32:41;16.13;;;9.30;;
73487;SDS011;61721;42.206;25.320;2023-12-14T04:35:09;17.33;;;9.38;;
73487;SDS011;61721;42.206;25.320;2023-12-14T04:37:36;17.90;;;9.75;;
73487;SDS011;61721;42.206;25.320;2023-12-14T04:40:04;17.13;;;9.95;;
73487;SDS011;61721;42.206;25.320;2023-12-14T04:42:34;24.42;;;11.82;;
73487;SDS011;61721;42.206;25.320;2023-12-14T04:45:02;25.50;;;12.65;;
73487;SDS011;61721;42.206;25.320;2023-12-14T04:47:30;23.58;;;12.35;;
73487;SDS011;61721;42.206;25.320;2023-12-14T04:49:57;20.58;;;10.40;;
73487;SDS011;61721;42.206;25.320;2023-12-14T04:52:25;22.10;;;11.45;;
73487;SDS011;61721;42.206;25.320;2023-12-14T04:54:52;23.40;;;11.65;;
73487;SDS011;61721;42.206;25.320;2023-12-14T04:57:20;23.63;;;12.10;;
73487;SDS011;61721;42.206;25.320;2023-12-14T04:59:49;30.58;;;12.77;;
73487;SDS011;61721;42.206;25.320;2023-12-14T05:02:16;24.80;;;12.57;;
73487;SDS011;61721;42.206;25.320;2023-12-14T05:04:44;21.73;;;10.45;;
73487;SDS011;61721;42.206;25.320;2023-12-14T05:07:12;21.63;;;9.35;;
73487;SDS011;61721;42.206;25.320;2023-12-14T05:09:40;19.48;;;10.57;;
73487;SDS011;61721;42.206;25.320;2023-12-14T05:12:08;19.38;;;10.63;;
73487;SDS011;61721;42.206;25.320;2023-12-14T05:14:35;20.50;;;10.25;;
73487;SDS011;61721;42.206;25.320;2023-12-14T05:19:34;16.67;;;8.18;;
73487;SDS011;61721;42.206;25.320;2023-12-14T05:22:01;16.45;;;9.55;;
73487;SDS011;61721;42.206;25.320;2023-12-14T05:24:28;19.65;;;9.88;;
73487;SDS011;61721;42.206;25.320;2023-12-14T05:26:56;16.38;;;9.30;;
73487;SDS011;61721;42.206;25.320;2023-12-14T05:29:23;16.55;;;9.50;;
73487;SDS011;61721;42.206;25.320;2023-12-14T05:31:51;21.60;;;10.63;;
73487;SDS011;61721;42.206;25.320;2023-12-14T05:34:20;17.40;;;9.68;;
73487;SDS011;61721;42.206;25.320;2023-12-14T05:36:47;19.67;;;11.30;;
73487;SDS011;61721;42.206;25.320;2023-12-14T05:39:15;23.73;;;11.50;;
73487;SDS011;61721;42.206;25.320;2023-12-14T05:41:42;21.40;;;11.43;;
73487;SDS011;61721;42.206;25.320;2023-12-14T05:44:09;21.40;;;11.00;;
73487;SDS011;61721;42.206;25.320;2023-12-14T05:46:37;21.75;;;12.40;;
73487;SDS011;61721;42.206;25.320;2023-12-14T05:49:04;41.85;;;19.60;;
73487;SDS011;61721;42.206;25.320;2023-12-14T05:51:33;54.72;;;26.42;;
73487;SDS011;61721;42.206;25.320;2023-12-14T05:54:02;61.70;;;27.85;;
73487;SDS011;61721;42.206;25.320;2023-12-14T05:56:29;56.40;;;24.90;;
73487;SDS011;61721;42.206;25.320;2023-12-14T05:58:56;42.97;;;21.38;;
73487;SDS011;61721;42.206;25.320;2023-12-14T06:01:24;48.85;;;21.77;;
73487;SDS011;61721;42.206;25.320;2023-12-14T06:03:51;41.60;;;19.25;;
73487;SDS011;61721;42.206;25.320;2023-12-14T06:06:19;61.97;;;24.20;;
73487;SDS011;61721;42.206;25.320;2023-12-14T06:08:48;45.88;;;20.48;;
73487;SDS011;61721;42.206;25.320;2023-12-14T06:11:15;45.85;;;21.40;;
73487;SDS011;61721;42.206;25.320;2023-12-14T06:13:43;28.58;;;13.98;;
73487;SDS011;61721;42.206;25.320;2023-12-14T06:16:10;23.70;;;10.52;;
73487;SDS011;61721;42.206;25.320;2023-12-14T06:18:39;24.23;;;10.93;;
73487;SDS011;61721;42.206;25.320;2023-12-14T06:21:08;19.63;;;9.88;;
73487;SDS011;61721;42.206;25.320;2023-12-14T06:23:38;18.13;;;9.80;;
73487;SDS011;61721;42.206;25.320;2023-12-14T06:26:07;16.65;;;10.05;;
73487;SDS011;61721;42.206;25.320;2023-12-14T06:28:34;15.23;;;8.57;;
73487;SDS011;61721;42.206;25.320;2023-12-14T06:31:02;20.52;;;10.00;;
73487;SDS011;61721;42.206;25.320;2023-12-14T06:33:30;18.17;;;9.20;;
73487;SDS011;61721;42.206;25.320;2023-12-14T06:35:58;21.25;;;9.75;;
73487;SDS011;61721;42.206;25.320;2023-12-14T06:38:29;20.85;;;10.13;;
73487;SDS011;61721;42.206;25.320;2023-12-14T06:40:56;20.92;;;9.73;;
73487;SDS011;61721;42.206;25.320;2023-12-14T06:43:25;15.77;;;8.25;;
73487;SDS011;61721;42.206;25.320;2023-12-14T06:45:52;20.20;;;9.60;;
73487;SDS011;61721;42.206;25.320;2023-12-14T06:48:20;20.15;;;9.68;;
73487;SDS011;61721;42.206;25.320;2023-12-14T06:50:47;35.30;;;15.77;;
73487;SDS011;61721;42.206;25.320;2023-12-14T06:53:15;32.40;;;14.70;;
73487;SDS011;61721;42.206;25.320;2023-12-14T06:55:42;26.35;;;12.55;;
73487;SDS011;61721;42.206;25.320;2023-12-14T06:58:10;29.17;;;14.48;;
73487;SDS011;61721;42.206;25.320;2023-12-14T07:00:39;26.58;;;12.40;;
73487;SDS011;61721;42.206;25.320;2023-12-14T07:03:06;22.90;;;13.50;;
73487;SDS011;61721;42.206;25.320;2023-12-14T07:05:34;25.80;;;13.63;;
73487;SDS011;61721;42.206;25.320;2023-12-14T07:08:01;23.48;;;11.02;;
73487;SDS011;61721;42.206;25.320;2023-12-14T07:10:29;20.63;;;12.07;;
73487;SDS011;61721;42.206;25.320;2023-12-14T07:12:56;22.35;;;12.25;;
73487;SDS011;61721;42.206;25.320;2023-12-14T07:15:24;22.35;;;11.85;;
73487;SDS011;61721;42.206;25.320;2023-12-14T07:17:53;26.08;;;11.82;;
73487;SDS011;61721;42.206;25.320;2023-12-14T07:20:20;16.88;;;8.70;;
73487;SDS011;61721;42.206;25.320;2023-12-14T07:22:48;17.98;;;8.60;;
73487;SDS011;61721;42.206;25.320;2023-12-14T07:25:15;13.60;;;7.47;;
73487;SDS011;61721;42.206;25.320;2023-12-14T07:27:42;19.63;;;7.93;;
73487;SDS011;61721;42.206;25.320;2023-12-14T07:30:12;15.70;;;7.05;;
73487;SDS011;61721;42.206;25.320;2023-12-14T07:32:39;11.55;;;6.38;;
73487;SDS011;61721;42.206;25.320;2023-12-14T07:35:08;22.55;;;12.63;;
73487;SDS011;61721;42.206;25.320;2023-12-14T07:37:36;16.50;;;9.07;;
73487;SDS011;61721;42.206;25.320;2023-12-14T07:40:04;13.30;;;7.07;;
73487;SDS011;61721;42.206;25.320;2023-12-14T07:42:33;44.63;;;20.25;;
73487;SDS011;61721;42.206;25.320;2023-12-14T07:45:00;27.25;;;13.45;;
73487;SDS011;61721;42.206;25.320;2023-12-14T07:47:28;24.38;;;10.55;;
73487;SDS011;61721;42.206;25.320;2023-12-14T07:49:56;21.30;;;9.52;;
73487;SDS011;61721;42.206;25.320;2023-12-14T07:52:25;20.77;;;9.38;;
73487;SDS011;61721;42.206;25.320;2023-12-14T07:54:52;22.50;;;11.50;;
73487;SDS011;61721;42.206;25.320;2023-12-14T07:57:20;18.73;;;10.63;;
73487;SDS011;61721;42.206;25.320;2023-12-14T07:59:49;19.13;;;9.98;;
73487;SDS011;61721;42.206;25.320;2023-12-14T08:02:17;23.88;;;13.73;;
73487;SDS011;61721;42.206;25.320;2023-12-14T08:04:45;28.73;;;15.38;;
73487;SDS011;61721;42.206;25.320;2023-12-14T08:07:13;23.83;;;14.70;;
73487;SDS011;61721;42.206;25.320;2023-12-14T08:09:41;21.60;;;12.07;;
73487;SDS011;61721;42.206;25.320;2023-12-14T08:12:09;20.00;;;11.10;;
73487;SDS011;61721;42.206;25.320;2023-12-14T08:14:36;20.27;;;10.80;;
73487;SDS011;61721;42.206;25.320;2023-12-14T08:17:08;20.27;;;10.98;;
73487;SDS011;61721;42.206;25.320;2023-12-14T08:19:36;23.08;;;9.88;;
73487;SDS011;61721;42.206;25.320;2023-12-14T08:22:03;19.60;;;11.63;;
73487;SDS011;61721;42.206;25.320;2023-12-14T08:24:31;19.90;;;11.23;;
73487;SDS011;61721;42.206;25.320;2023-12-14T08:27:00;21.80;;;13.93;;
73487;SDS011;61721;42.206;25.320;2023-12-14T08:29:27;24.70;;;13.75;;
73487;SDS011;61721;42.206;25.320;2023-12-14T08:31:54;24.17;;;13.57;;
73487;SDS011;61721;42.206;25.320;2023-12-14T08:34:24;29.45;;;17.40;;
73487;SDS011;61721;42.206;25.320;2023-12-14T08:36:51;24.52;;;11.98;;
73487;SDS011;61721;42.206;25.320;2023-12-14T08:39:18;23.67;;;13.45;;
73487;SDS011;61721;42.206;25.320;2023-12-14T08:41:46;30.35;;;15.68;;
73487;SDS011;61721;42.206;25.320;2023-12-14T08:44:15;29.55;;;17.80;;
73487;SDS011;61721;42.206;25.320;2023-12-14T08:46:43;23.23;;;13.32;;
73487;SDS011;61721;42.206;25.320;2023-12-14T08:49:12;28.30;;;14.88;;
73487;SDS011;61721;42.206;25.320;2023-12-14T08:51:40;28.20;;;15.85;;
73487;SDS011;61721;42.206;25.320;2023-12-14T08:54:08;28.48;;;16.17;;
73487;SDS011;61721;42.206;25.320;2023-12-14T08:56:36;28.65;;;16.23;;
73487;SDS011;61721;42.206;25.320;2023-12-14T08:59:03;31.13;;;15.25;;
73487;SDS011;61721;42.206;25.320;2023-12-14T09:01:32;27.33;;;15.43;;
73487;SDS011;61721;42.206;25.320;2023-12-14T09:03:59;26.27;;;14.93;;
73487;SDS011;61721;42.206;25.320;2023-12-14T09:06:27;28.08;;;15.23;;
73487;SDS011;61721;42.206;25.320;2023-12-14T09:08:54;28.75;;;14.38;;
73487;SDS011;61721;42.206;25.320;2023-12-14T09:11:22;22.77;;;12.25;;
73487;SDS011;61721;42.206;25.320;2023-12-14T09:13:49;25.77;;;13.68;;
73487;SDS011;61721;42.206;25.320;2023-12-14T09:16:17;25.52;;;12.82;;
73487;SDS011;61721;42.206;25.320;2023-12-14T09:18:46;25.40;;;12.25;;
73487;SDS011;61721;42.206;25.320;2023-12-14T09:21:13;22.17;;;11.55;;
73487;SDS011;61721;42.206;25.320;2023-12-14T09:23:41;21.35;;;11.75;;
73487;SDS011;61721;42.206;25.320;2023-12-14T09:26:08;22.83;;;12.73;;
73487;SDS011;61721;42.206;25.320;2023-12-14T09:28:36;27.30;;;14.25;;
73487;SDS011;61721;42.206;25.320;2023-12-14T09:31:03;25.60;;;14.63;;
73487;SDS011;61721;42.206;25.320;2023-12-14T09:33:31;30.90;;;16.20;;
73487;SDS011;61721;42.206;25.320;2023-12-14T09:36:00;26.10;;;15.60;;
73487;SDS011;61721;42.206;25.320;2023-12-14T09:38:27;43.97;;;18.65;;
73487;SDS011;61721;42.206;25.320;2023-12-14T09:40:54;39.22;;;19.10;;
73487;SDS011;61721;42.206;25.320;2023-12-14T09:43:22;58.05;;;25.33;;
73487;SDS011;61721;42.206;25.320;2023-12-14T09:45:50;46.30;;;19.48;;
73487;SDS011;61721;42.206;25.320;2023-12-14T09:48:18;28.25;;;14.52;;
73487;SDS011;61721;42.206;25.320;2023-12-14T09:50:47;27.08;;;14.23;;
73487;SDS011;61721;42.206;25.320;2023-12-14T09:53:17;26.48;;;14.45;;
73487;SDS011;61721;42.206;25.320;2023-12-14T09:55:45;28.60;;;16.65;;
73487;SDS011;61721;42.206;25.320;2023-12-14T09:58:12;27.75;;;16.15;;
73487;SDS011;61721;42.206;25.320;2023-12-14T10:00:40;29.70;;;16.55;;
73487;SDS011;61721;42.206;25.320;2023-12-14T10:03:17;29.70;;;15.43;;
73487;SDS011;61721;42.206;25.320;2023-12-14T10:05:49;27.35;;;14.98;;
73487;SDS011;61721;42.206;25.320;2023-12-14T10:08:21;31.80;;;17.13;;
73487;SDS011;61721;42.206;25.320;2023-12-14T10:10:49;31.08;;;17.05;;
73487;SDS011;61721;42.206;25.320;2023-12-14T10:13:18;33.40;;;18.95;;
73487;SDS011;61721;42.206;25.320;2023-12-14T10:15:47;29.33;;;16.25;;
73487;SDS011;61721;42.206;25.320;2023-12-14T10:18:19;36.22;;;18.83;;
73487;SDS011;61721;42.206;25.320;2023-12-14T10:20:50;31.42;;;18.52;;
73487;SDS011;61721;42.206;25.320;2023-12-14T10:23:18;30.73;;;19.20;;
73487;SDS011;61721;42.206;25.320;2023-12-14T10:25:48;30.10;;;18.00;;
73487;SDS011;61721;42.206;25.320;2023-12-14T10:28:15;30.60;;;16.80;;
73487;SDS011;61721;42.206;25.320;2023-12-14T10:30:43;25.60;;;14.77;;
73487;SDS011;61721;42.206;25.320;2023-12-14T10:33:11;30.50;;;16.15;;
73487;SDS011;61721;42.206;25.320;2023-12-14T10:35:40;28.10;;;14.38;;
73487;SDS011;61721;42.206;25.320;2023-12-14T10:38:11;26.10;;;15.45;;
73487;SDS011;61721;42.206;25.320;2023-12-14T10:40:39;24.70;;;15.05;;
73487;SDS011;61721;42.206;25.320;2023-12-14T10:43:10;23.13;;;14.50;;
73487;SDS011;61721;42.206;25.320;2023-12-14T10:45:39;29.02;;;15.85;;
73487;SDS011;61721;42.206;25.320;2023-12-14T10:48:11;26.85;;;14.98;;
73487;SDS011;61721;42.206;25.320;2023-12-14T10:50:39;25.70;;;14.15;;
73487;SDS011;61721;42.206;25.320;2023-12-14T10:53:09;25.20;;;14.98;;
73487;SDS011;61721;42.206;25.320;2023-12-14T10:55:38;27.33;;;15.48;;
73487;SDS011;61721;42.206;25.320;2023-12-14T10:58:10;26.73;;;14.65;;
73487;SDS011;61721;42.206;25.320;2023-12-14T11:00:48;24.42;;;14.05;;
73487;SDS011;61721;42.206;25.320;2023-12-14T11:03:26;33.20;;;17.80;;
73487;SDS011;61721;42.206;25.320;2023-12-14T11:05:59;32.58;;;17.27;;
73487;SDS011;61721;42.206;25.320;2023-12-14T11:08:27;24.67;;;14.13;;
73487;SDS011;61721;42.206;25.320;2023-12-14T11:10:54;23.38;;;14.40;;
73487;SDS011;61721;42.206;25.320;2023-12-14T11:13:37;23.02;;;14.20;;
73487;SDS011;61721;42.206;25.320;2023-12-14T11:16:07;26.25;;;15.68;;
73487;SDS011;61721;42.206;25.320;2023-12-14T11:18:35;29.27;;;17.77;;
73487;SDS011;61721;42.206;25.320;2023-12-14T11:21:03;28.33;;;16.88;;
73487;SDS011;61721;42.206;25.320;2023-12-14T11:23:31;24.40;;;16.50;;
73487;SDS011;61721;42.206;25.320;2023-12-14T11:26:00;24.90;;;16.30;;
73487;SDS011;61721;42.206;25.320;2023-12-14T11:28:30;24.25;;;12.38;;
73487;SDS011;61721;42.206;25.320;2023-12-14T11:31:03;48.40;;;26.33;;
73487;SDS011;61721;42.206;25.320;2023-12-14T11:33:32;26.10;;;13.95;;
73487;SDS011;61721;42.206;25.320;2023-12-14T11:36:01;27.42;;;15.60;;
73487;SDS011;61721;42.206;25.320;2023-12-14T11:38:30;26.27;;;14.82;;
73487;SDS011;61721;42.206;25.320;2023-12-14T11:40:58;24.83;;;14.68;;
73487;SDS011;61721;42.206;25.320;2023-12-14T11:43:25;26.70;;;14.85;;
73487;SDS011;61721;42.206;25.320;2023-12-14T11:45:53;28.20;;;15.43;;
73487;SDS011;61721;42.206;25.320;2023-12-14T11:48:22;27.20;;;16.27;;
73487;SDS011;61721;42.206;25.320;2023-12-14T11:50:50;25.95;;;15.75;;
73487;SDS011;61721;42.206;25.320;2023-12-14T11:53:18;29.08;;;17.15;;
73487;SDS011;61721;42.206;25.320;2023-12-14T11:55:45;30.02;;;15.88;;
73487;SDS011;61721;42.206;25.320;2023-12-14T11:58:13;39.90;;;18.70;;
73487;SDS011;61721;42.206;25.320;2023-12-14T12:00:42;31.05;;;16.15;;
73487;SDS011;61721;42.206;25.320;2023-12-14T12:03:12;32.90;;;16.65;;
73487;SDS011;61721;42.206;25.320;2023-12-14T12:05:42;28.38;;;16.35;;
73487;SDS011;61721;42.206;25.320;2023-12-14T12:08:11;26.55;;;15.82;;
73487;SDS011;61721;42.206;25.320;2023-12-14T12:10:41;32.20;;;15.13;;
73487;SDS011;61721;42.206;25.320;2023-12-14T12:13:11;24.98;;;13.70;;
73487;SDS011;61721;42.206;25.320;2023-12-14T12:15:40;23.00;;;14.55;;
73487;SDS011;61721;42.206;25.320;2023-12-14T12:18:08;26.10;;;15.10;;
73487;SDS011;61721;42.206;25.320;2023-12-14T12:20:36;32.92;;;16.88;;
73487;SDS011;61721;42.206;25.320;2023-12-14T12:23:05;62.67;;;31.10;;
73487;SDS011;61721;42.206;25.320;2023-12-14T12:25:33;37.33;;;19.42;;
73487;SDS011;61721;42.206;25.320;2023-12-14T12:28:02;28.38;;;15.35;;
73487;SDS011;61721;42.206;25.320;2023-12-14T12:30:30;29.80;;;15.18;;
73487;SDS011;61721;42.206;25.320;2023-12-14T12:32:58;33.20;;;18.92;;
73487;SDS011;61721;42.206;25.320;2023-12-14T12:35:25;27.40;;;15.88;;
73487;SDS011;61721;42.206;25.320;2023-12-14T12:37:55;35.08;;;18.58;;
73487;SDS011;61721;42.206;25.320;2023-12-14T12:40:24;26.48;;;15.43;;
73487;SDS011;61721;42.206;25.320;2023-12-14T12:42:52;21.70;;;12.95;;
73487;SDS011;61721;42.206;25.320;2023-12-14T12:45:20;36.22;;;17.35;;
73487;SDS011;61721;42.206;25.320;2023-12-14T12:47:50;32.90;;;18.27;;
73487;SDS011;61721;42.206;25.320;2023-12-14T12:50:18;33.13;;;18.15;;
73487;SDS011;61721;42.206;25.320;2023-12-14T12:52:46;33.17;;;19.40;;
73487;SDS011;61721;42.206;25.320;2023-12-14T12:55:17;27.50;;;17.50;;
73487;SDS011;61721;42.206;25.320;2023-12-14T13:00:14;23.60;;;14.48;;
73487;SDS011;61721;42.206;25.320;2023-12-14T13:02:42;28.33;;;14.30;;
73487;SDS011;61721;42.206;25.320;2023-12-14T13:05:11;25.85;;;14.10;;
73487;SDS011;61721;42.206;25.320;2023-12-14T13:07:39;25.17;;;14.57;;
73487;SDS011;61721;42.206;25.320;2023-12-14T13:10:19;21.80;;;13.18;;
73487;SDS011;61721;42.206;25.320;2023-12-14T13:12:53;23.52;;;14.30;;
73487;SDS011;61721;42.206;25.320;2023-12-14T13:15:21;20.20;;;12.50;;
73487;SDS011;61721;42.206;25.320;2023-12-14T13:17:50;34.22;;;12.65;;
73487;SDS011;61721;42.206;25.320;2023-12-14T13:20:18;21.20;;;12.98;;
73487;SDS011;61721;42.206;25.320;2023-12-14T13:22:49;27.95;;;14.85;;
73487;SDS011;61721;42.206;25.320;2023-12-14T13:25:16;24.23;;;13.50;;
73487;SDS011;61721;42.206;25.320;2023-12-14T13:27:45;21.08;;;12.63;;
73487;SDS011;61721;42.206;25.320;2023-12-14T13:30:14;26.33;;;14.10;;
73487;SDS011;61721;42.206;25.320;2023-12-14T13:32:42;21.67;;;12.98;;
73487;SDS011;61721;42.206;25.320;2023-12-14T13:35:10;20.17;;;12.70;;
73487;SDS011;61721;42.206;25.320;2023-12-14T13:37:38;23.02;;;13.00;;
73487;SDS011;61721;42.206;25.320;2023-12-14T13:40:06;23.92;;;12.35;;
73487;SDS011;61721;42.206;25.320;2023-12-14T13:42:36;21.45;;;12.02;;
73487;SDS011;61721;42.206;25.320;2023-12-14T13:45:03;22.20;;;13.13;;
73487;SDS011;61721;42.206;25.320;2023-12-14T13:47:33;24.25;;;13.38;;
73487;SDS011;61721;42.206;25.320;2023-12-14T13:50:00;23.83;;;13.98;;
73487;SDS011;61721;42.206;25.320;2023-12-14T13:52:29;26.20;;;15.02;;
73487;SDS011;61721;42.206;25.320;2023-12-14T13:54:56;32.33;;;17.25;;
73487;SDS011;61721;42.206;25.320;2023-12-14T13:57:25;23.63;;;14.65;;
73487;SDS011;61721;42.206;25.320;2023-12-14T13:59:53;23.90;;;13.80;;
73487;SDS011;61721;42.206;25.320;2023-12-14T14:02:20;24.25;;;14.10;;
73487;SDS011;61721;42.206;25.320;2023-12-14T14:04:50;27.13;;;15.70;;
73487;SDS011;61721;42.206;25.320;2023-12-14T14:07:17;25.00;;;14.70;;
73487;SDS011;61721;42.206;25.320;2023-12-14T14:09:45;27.40;;;15.23;;
73487;SDS011;61721;42.206;25.320;2023-12-14T14:12:12;32.20;;;18.60;;
73487;SDS011;61721;42.206;25.320;2023-12-14T14:14:39;30.05;;;18.35;;
73487;SDS011;61721;42.206;25.320;2023-12-14T14:17:07;34.17;;;19.00;;
73487;SDS011;61721;42.206;25.320;2023-12-14T14:19:35;28.40;;;15.93;;
73487;SDS011;61721;42.206;25.320;2023-12-14T14:22:04;27.85;;;15.95;;